createdAt,value
2019-03-09T00:00:32.694Z,10.67
2019-03-09T00:02:59.581Z,14.97
2019-03-09T00:05:26.811Z,19.87
2019-03-09T00:07:53.992Z,11.67
2019-03-09T00:10:20.919Z,14.97
2019-03-09T00:12:47.721Z,16.40
2019-03-09T00:15:14.540Z,18.40
2019-03-09T00:17:42.753Z,15.10
2019-03-09T00:20:09.716Z,14.40
2019-03-09T00:22:36.739Z,18.47
2019-03-09T00:25:11.673Z,15.50
2019-03-09T00:27:52.444Z,17.70
2019-03-09T00:30:39.188Z,18.73
2019-03-09T00:33:06.226Z,12.90
2019-03-09T00:35:33.091Z,16.00
2019-03-09T00:38:00.308Z,13.30
2019-03-09T00:40:27.091Z,13.80
2019-03-09T00:42:53.871Z,14.80
2019-03-09T00:45:20.723Z,11.43
2019-03-09T00:47:47.517Z,13.63
2019-03-09T00:50:14.304Z,13.13
2019-03-09T00:52:41.109Z,22.07
2019-03-09T00:55:08.599Z,12.83
2019-03-09T00:57:35.541Z,14.40
2019-03-09T01:00:02.862Z,16.03
2019-03-09T01:02:29.669Z,21.83
2019-03-09T01:04:56.472Z,13.37
2019-03-09T01:07:23.320Z,15.97
2019-03-09T01:09:50.124Z,14.13
2019-03-09T01:12:16.988Z,14.10
2019-03-09T01:14:43.885Z,12.07
2019-03-09T01:17:10.698Z,10.93
2019-03-09T01:19:37.537Z,14.53
2019-03-09T01:22:04.323Z,12.50
2019-03-09T01:24:31.139Z,14.20
2019-03-09T01:26:58.344Z,14.17
2019-03-09T01:29:25.181Z,15.60
2019-03-09T01:31:51.953Z,13.10
2019-03-09T01:34:18.888Z,14.97
2019-03-09T01:36:45.716Z,9.60
2019-03-09T01:39:12.603Z,16.60
2019-03-09T01:41:39.445Z,13.73
2019-03-09T01:44:06.293Z,18.20
2019-03-09T01:46:33.122Z,18.67
2019-03-09T01:49:00.328Z,11.80
2019-03-09T01:51:27.159Z,15.00
2019-03-09T01:53:53.978Z,12.40
2019-03-09T01:56:20.785Z,17.20
2019-03-09T01:58:47.595Z,15.83
2019-03-09T02:01:14.363Z,14.07
2019-03-09T02:03:41.209Z,18.10
2019-03-09T02:06:08.051Z,11.00
2019-03-09T02:08:34.934Z,16.40
2019-03-09T02:11:01.807Z,11.43
2019-03-09T02:13:28.640Z,14.97
2019-03-09T02:15:55.638Z,12.30
2019-03-09T02:18:22.436Z,15.03
2019-03-09T02:20:49.215Z,15.77
2019-03-09T02:23:16.068Z,13.47
2019-03-09T02:25:42.866Z,14.50
2019-03-09T02:28:09.664Z,19.70
2019-03-09T02:30:36.486Z,9.70
2019-03-09T02:33:03.256Z,9.80
2019-03-09T02:35:30.424Z,12.17
2019-03-09T02:38:00.372Z,13.13
2019-03-09T02:40:27.191Z,11.87
2019-03-09T02:42:54.165Z,12.40
2019-03-09T02:45:21.722Z,11.97
2019-03-09T02:47:48.533Z,13.07
2019-03-09T02:50:15.539Z,10.67
2019-03-09T02:52:42.453Z,12.13
2019-03-09T02:55:10.530Z,12.10
2019-03-09T02:57:37.323Z,14.43
2019-03-09T03:00:05.096Z,13.13
2019-03-09T03:02:41.041Z,17.33
2019-03-09T03:05:07.933Z,12.27
2019-03-09T03:07:34.706Z,13.80
2019-03-09T03:10:01.666Z,15.87
2019-03-09T03:12:28.447Z,12.53
2019-03-09T03:14:55.306Z,13.80
2019-03-09T03:17:22.109Z,12.40
2019-03-09T03:19:48.938Z,13.40
2019-03-09T03:22:15.740Z,9.23
2019-03-09T03:24:42.956Z,11.80
2019-03-09T03:27:09.760Z,13.90
2019-03-09T03:29:36.536Z,15.47
2019-03-09T03:32:03.330Z,14.10
2019-03-09T03:34:30.171Z,12.43
2019-03-09T03:36:56.990Z,13.40
2019-03-09T03:39:24.089Z,13.93
2019-03-09T03:41:50.900Z,10.23
2019-03-09T03:44:17.788Z,14.03
2019-03-09T03:46:44.649Z,11.80
2019-03-09T03:49:11.420Z,9.70
2019-03-09T03:51:38.195Z,11.63
2019-03-09T03:54:05.276Z,9.50
2019-03-09T03:56:32.345Z,12.00
2019-03-09T03:58:59.116Z,13.90
2019-03-09T04:01:25.930Z,13.43
2019-03-09T04:03:52.801Z,12.87
2019-03-09T04:06:19.623Z,13.63
2019-03-09T04:08:46.516Z,9.67
2019-03-09T04:11:13.496Z,16.43
2019-03-09T04:13:40.275Z,11.40
2019-03-09T04:16:07.105Z,10.97
2019-03-09T04:18:33.864Z,15.90
2019-03-09T04:21:01.947Z,10.73
2019-03-09T04:23:29.019Z,17.00
2019-03-09T04:25:55.823Z,13.70
2019-03-09T04:28:22.989Z,15.70
2019-03-09T04:30:49.884Z,13.00
2019-03-09T04:33:16.655Z,11.00
2019-03-09T04:35:43.438Z,12.83
2019-03-09T04:38:10.347Z,10.30
2019-03-09T04:40:37.460Z,20.83
2019-03-09T04:43:04.269Z,16.03
2019-03-09T04:45:31.066Z,11.50
2019-03-09T04:47:58.138Z,10.27
2019-03-09T04:50:24.908Z,9.60
2019-03-09T04:52:51.721Z,9.27
2019-03-09T04:55:18.532Z,14.10
2019-03-09T04:57:45.329Z,12.20
2019-03-09T05:00:12.297Z,13.00
2019-03-09T05:02:39.192Z,14.63
2019-03-09T05:05:06.601Z,11.00
2019-03-09T05:07:34.565Z,10.30
2019-03-09T05:10:09.014Z,12.80
2019-03-09T05:12:35.779Z,8.77
2019-03-09T05:15:03.010Z,10.60
2019-03-09T05:17:29.979Z,18.53
2019-03-09T05:19:56.894Z,16.87
2019-03-09T05:22:23.704Z,12.23
2019-03-09T05:24:50.817Z,14.83
2019-03-09T05:27:17.719Z,14.50
2019-03-09T05:29:44.528Z,11.77
2019-03-09T05:32:11.331Z,8.60
2019-03-09T05:34:38.111Z,16.03
2019-03-09T05:37:04.894Z,17.57
2019-03-09T05:39:31.686Z,17.50
2019-03-09T05:41:58.521Z,11.23
2019-03-09T05:44:25.319Z,11.73
2019-03-09T05:46:52.095Z,12.63
2019-03-09T05:49:19.060Z,16.63
2019-03-09T05:52:05.564Z,15.00
2019-03-09T05:54:32.352Z,18.17
2019-03-09T05:56:59.168Z,14.90
2019-03-09T05:59:26.057Z,10.03
2019-03-09T06:01:52.828Z,15.47
2019-03-09T06:04:19.603Z,11.37
2019-03-09T06:06:46.433Z,13.30
2019-03-09T06:09:13.307Z,16.03
2019-03-09T06:11:40.411Z,17.10
2019-03-09T06:14:07.664Z,14.33
2019-03-09T06:16:34.505Z,20.57
2019-03-09T06:19:01.326Z,14.67
2019-03-09T06:21:28.131Z,15.40
2019-03-09T06:23:54.974Z,20.40
2019-03-09T06:26:21.803Z,20.10
2019-03-09T06:28:48.696Z,20.17
2019-03-09T06:31:15.497Z,21.23
2019-03-09T06:33:43.460Z,19.93
2019-03-09T06:36:15.067Z,13.73
2019-03-09T06:38:47.513Z,13.40
2019-03-09T06:41:15.678Z,16.10
2019-03-09T06:43:42.601Z,15.40
2019-03-09T06:46:09.384Z,15.90
2019-03-09T06:48:36.198Z,16.87
2019-03-09T06:51:03.078Z,13.30
2019-03-09T06:53:29.948Z,12.37
2019-03-09T06:55:56.805Z,9.93
2019-03-09T06:58:23.708Z,12.90
2019-03-09T07:00:50.559Z,11.03
2019-03-09T07:03:17.391Z,17.10
2019-03-09T07:05:44.179Z,17.77
2019-03-09T07:08:10.998Z,13.27
2019-03-09T07:10:37.761Z,11.37
2019-03-09T07:13:04.633Z,12.20
2019-03-09T07:15:32.479Z,15.37
2019-03-09T07:18:00.687Z,9.23
2019-03-09T07:20:27.677Z,14.13
2019-03-09T07:22:54.451Z,11.30
2019-03-09T07:25:21.392Z,12.67
2019-03-09T07:28:04.265Z,11.13
2019-03-09T07:30:31.084Z,13.40
2019-03-09T07:32:58.010Z,9.67
2019-03-09T07:35:25.165Z,11.27
2019-03-09T07:37:51.940Z,6.00
2019-03-09T07:40:18.754Z,5.30
2019-03-09T07:42:45.619Z,8.60
2019-03-09T07:45:12.891Z,11.17
2019-03-09T07:47:39.680Z,12.20
2019-03-09T07:50:07.691Z,6.70
2019-03-09T07:52:35.197Z,7.00
2019-03-09T07:55:02.202Z,7.87
2019-03-09T07:57:28.984Z,7.67
2019-03-09T07:59:55.921Z,7.70
2019-03-09T08:02:22.726Z,7.30
2019-03-09T08:04:49.516Z,5.10
2019-03-09T08:07:16.304Z,6.70
2019-03-09T08:09:43.189Z,6.37
2019-03-09T08:12:10.065Z,9.20
2019-03-09T08:14:36.848Z,12.37
2019-03-09T08:17:04.109Z,6.50
2019-03-09T08:19:30.915Z,11.40
2019-03-09T08:21:57.845Z,7.13
2019-03-09T08:24:24.612Z,3.27
2019-03-09T08:26:51.555Z,4.80
2019-03-09T08:29:18.434Z,2.70
2019-03-09T08:31:45.292Z,2.33
2019-03-09T08:34:12.212Z,3.43
2019-03-09T08:36:39.080Z,6.83
2019-03-09T08:39:06.267Z,3.53
2019-03-09T08:41:33.504Z,5.50
2019-03-09T08:44:00.910Z,4.20
2019-03-09T08:46:27.805Z,4.70
2019-03-09T08:48:54.633Z,5.50
2019-03-09T08:51:21.537Z,4.77
2019-03-09T08:53:48.401Z,4.00
2019-03-09T08:56:15.258Z,3.83
2019-03-09T08:58:42.179Z,3.70
2019-03-09T09:01:09.044Z,3.57
2019-03-09T09:03:35.831Z,6.80
2019-03-09T09:06:02.758Z,7.10
2019-03-09T09:08:29.680Z,3.67
2019-03-09T09:10:56.471Z,4.77
2019-03-09T09:13:23.362Z,4.10
2019-03-09T09:15:50.276Z,3.20
2019-03-09T09:18:17.085Z,7.30
2019-03-09T09:20:43.916Z,6.07
2019-03-09T09:23:10.747Z,5.30
2019-03-09T09:25:37.554Z,4.53
2019-03-09T09:28:04.416Z,5.10
2019-03-09T09:30:31.199Z,7.10
2019-03-09T09:32:58.269Z,9.33
2019-03-09T09:35:25.176Z,5.70
2019-03-09T09:37:51.976Z,14.97
2019-03-09T09:40:19.348Z,9.50
2019-03-09T09:42:46.453Z,9.90
2019-03-09T09:45:13.380Z,8.00
2019-03-09T09:47:42.644Z,7.40
2019-03-09T09:50:09.914Z,8.13
2019-03-09T09:52:36.736Z,11.70
2019-03-09T09:55:04.181Z,7.10
2019-03-09T09:57:31.096Z,11.13
2019-03-09T09:59:59.519Z,7.70
2019-03-09T10:02:26.513Z,19.07
2019-03-09T10:04:53.696Z,9.07
2019-03-09T10:07:20.724Z,12.80
2019-03-09T10:09:47.690Z,7.43
2019-03-09T10:12:15.019Z,10.37
2019-03-09T10:14:42.237Z,8.47
2019-03-09T10:17:09.684Z,8.27
2019-03-09T10:19:36.548Z,9.93
2019-03-09T10:22:03.557Z,5.90
2019-03-09T10:24:30.694Z,5.40
2019-03-09T10:26:57.555Z,7.97
2019-03-09T10:29:24.411Z,11.30
2019-03-09T10:31:51.263Z,11.60
2019-03-09T10:34:18.120Z,12.70
2019-03-09T10:36:44.908Z,10.03
2019-03-09T10:39:11.713Z,13.53
2019-03-09T10:41:38.534Z,6.63
2019-03-09T10:44:05.628Z,8.70
2019-03-09T10:46:32.509Z,7.40
2019-03-09T10:48:59.477Z,6.17
2019-03-09T10:51:26.348Z,8.80
2019-03-09T10:53:53.227Z,11.57
2019-03-09T10:56:20.044Z,11.37
2019-03-09T10:58:46.953Z,9.93
2019-03-09T11:01:13.773Z,10.47
2019-03-09T11:03:40.600Z,7.20
2019-03-09T11:06:07.540Z,5.80
2019-03-09T11:08:34.330Z,8.43
2019-03-09T11:11:01.206Z,6.73
2019-03-09T11:13:28.075Z,9.27
2019-03-09T11:15:54.913Z,7.20
2019-03-09T11:18:21.829Z,11.67
2019-03-09T11:20:48.867Z,10.07
2019-03-09T11:23:15.720Z,13.03
2019-03-09T11:25:42.611Z,18.27
2019-03-09T11:28:10.528Z,13.40
2019-03-09T11:30:37.431Z,9.47
2019-03-09T11:33:04.262Z,17.07
2019-03-09T11:35:32.779Z,13.40
2019-03-09T11:37:59.816Z,15.30
2019-03-09T11:40:26.636Z,13.57
2019-03-09T11:42:53.423Z,16.50
2019-03-09T11:45:20.268Z,18.00
2019-03-09T11:47:47.118Z,17.80
2019-03-09T11:50:13.957Z,19.30
2019-03-09T11:52:40.873Z,15.17
2019-03-09T11:55:07.776Z,10.60
2019-03-09T11:57:34.844Z,22.03
2019-03-09T12:00:01.880Z,12.77
2019-03-09T12:02:38.303Z,13.60
2019-03-09T12:04:57.556Z,10.43
2019-03-09T12:07:24.487Z,15.83
2019-03-09T12:09:51.290Z,15.40
2019-03-09T12:12:18.139Z,9.00
2019-03-09T12:14:44.961Z,9.40
2019-03-09T12:17:13.058Z,8.90
2019-03-09T12:19:39.995Z,10.53
2019-03-09T12:22:06.779Z,15.53
2019-03-09T12:24:33.560Z,14.13
2019-03-09T12:27:00.339Z,10.20
2019-03-09T12:29:27.303Z,13.67
2019-03-09T12:31:54.163Z,7.87
2019-03-09T12:34:20.978Z,7.80
2019-03-09T12:36:47.791Z,9.50
2019-03-09T12:39:14.624Z,8.03
2019-03-09T12:41:41.425Z,5.97
2019-03-09T12:44:08.278Z,10.93
2019-03-09T12:46:35.142Z,9.17
2019-03-09T12:49:02.045Z,8.00
2019-03-09T12:51:28.876Z,11.90
2019-03-09T12:53:55.669Z,12.33
2019-03-09T12:56:22.450Z,11.47
2019-03-09T12:58:49.422Z,8.20
2019-03-09T13:01:16.372Z,8.93
2019-03-09T13:03:43.303Z,5.97
2019-03-09T13:06:10.248Z,7.80
2019-03-09T13:08:37.056Z,10.73
2019-03-09T13:11:03.874Z,8.50
2019-03-09T13:13:31.819Z,10.97
2019-03-09T13:15:58.731Z,11.23
2019-03-09T13:18:25.550Z,8.57
2019-03-09T13:20:52.467Z,14.77
2019-03-09T13:23:19.248Z,12.37
2019-03-09T13:25:46.100Z,11.70
2019-03-09T13:28:12.990Z,11.43
2019-03-09T13:30:39.816Z,12.13
2019-03-09T13:33:06.683Z,13.20
2019-03-09T13:35:34.530Z,10.60
2019-03-09T13:38:01.391Z,14.03
2019-03-09T13:40:28.185Z,17.43
2019-03-09T13:42:54.991Z,13.70
2019-03-09T13:45:21.810Z,9.47
2019-03-09T13:47:48.613Z,10.90
2019-03-09T13:50:15.520Z,11.63
2019-03-09T13:52:42.460Z,11.00
2019-03-09T13:55:09.455Z,11.10
2019-03-09T13:57:36.276Z,10.40
2019-03-09T14:00:03.709Z,14.93
2019-03-09T14:02:30.504Z,25.23
2019-03-09T14:04:57.402Z,41.27
2019-03-09T14:07:24.360Z,13.07
2019-03-09T14:09:51.260Z,29.87
2019-03-09T14:12:18.088Z,15.87
2019-03-09T14:14:44.973Z,26.83
2019-03-09T14:17:11.941Z,17.73
2019-03-09T14:19:38.921Z,11.87
2019-03-09T14:22:05.782Z,16.63
2019-03-09T14:24:32.647Z,17.50
2019-03-09T14:26:59.472Z,13.40
2019-03-09T14:29:26.313Z,11.60
2019-03-09T14:31:53.117Z,16.80
2019-03-09T14:34:19.932Z,9.17
2019-03-09T14:36:46.956Z,16.57
2019-03-09T14:39:13.932Z,13.90
2019-03-09T14:41:40.859Z,18.23
2019-03-09T14:44:07.747Z,23.40
2019-03-09T14:46:34.622Z,16.60
2019-03-09T14:49:01.468Z,17.00
2019-03-09T14:51:28.373Z,19.70
2019-03-09T14:53:55.243Z,14.50
2019-03-09T14:56:22.061Z,15.90
2019-03-09T14:58:48.880Z,15.23
2019-03-09T15:01:15.905Z,15.23
2019-03-09T15:03:42.995Z,9.83
2019-03-09T15:06:09.884Z,13.50
2019-03-09T15:08:36.716Z,15.33
2019-03-09T15:11:03.604Z,11.83
2019-03-09T15:13:30.539Z,11.97
2019-03-09T15:15:57.339Z,12.40
2019-03-09T15:18:24.203Z,12.90
2019-03-09T15:20:51.031Z,7.30
2019-03-09T15:23:17.916Z,12.90
2019-03-09T15:25:44.870Z,10.00
2019-03-09T15:28:11.784Z,9.53
2019-03-09T15:30:38.561Z,9.60
2019-03-09T15:33:05.429Z,10.90
2019-03-09T15:35:32.689Z,13.07
2019-03-09T15:37:59.598Z,16.93
2019-03-09T15:40:26.562Z,11.57
2019-03-09T15:42:53.564Z,9.47
2019-03-09T15:45:20.496Z,13.20
2019-03-09T15:47:47.568Z,12.87
2019-03-09T15:50:14.650Z,12.80
2019-03-09T15:52:41.654Z,12.17
2019-03-09T15:55:09.928Z,13.87
2019-03-09T15:57:36.878Z,13.40
2019-03-09T16:00:04.751Z,9.23
2019-03-09T16:02:31.588Z,7.03
2019-03-09T16:04:58.498Z,7.83
2019-03-09T16:07:25.427Z,4.93
2019-03-09T16:09:52.298Z,5.23
2019-03-09T16:12:19.141Z,7.13
2019-03-09T16:14:46.032Z,5.37
2019-03-09T16:17:13.014Z,4.80
2019-03-09T16:19:39.871Z,5.57
2019-03-09T16:22:06.755Z,4.10
2019-03-09T16:24:33.867Z,2.90
2019-03-09T16:27:00.650Z,4.30
2019-03-09T16:29:27.534Z,3.87
2019-03-09T16:31:54.641Z,3.23
2019-03-09T16:34:21.581Z,3.20
2019-03-09T16:36:48.509Z,13.40
2019-03-09T16:39:15.385Z,3.37
2019-03-09T16:41:42.244Z,6.20
2019-03-09T16:44:09.822Z,5.70
2019-03-09T16:46:36.724Z,9.80
2019-03-09T16:49:04.192Z,7.30
2019-03-09T16:51:31.128Z,4.73
2019-03-09T16:53:58.165Z,10.07
2019-03-09T16:56:25.097Z,7.03
2019-03-09T16:58:52.021Z,10.13
2019-03-09T17:01:18.985Z,13.40
2019-03-09T17:03:45.935Z,6.90
2019-03-09T17:06:12.851Z,9.60
2019-03-09T17:08:39.724Z,6.63
2019-03-09T17:11:06.583Z,4.60
2019-03-09T17:13:33.464Z,7.50
2019-03-09T17:16:00.512Z,7.93
2019-03-09T17:18:27.606Z,6.23
2019-03-09T17:20:56.693Z,7.13
2019-03-09T17:23:23.400Z,10.30
2019-03-09T17:25:50.216Z,8.60
2019-03-09T17:28:17.020Z,6.40
2019-03-09T17:30:43.944Z,11.27
2019-03-09T17:33:10.843Z,8.70
2019-03-09T17:35:37.753Z,11.10
2019-03-09T17:38:04.572Z,6.83
2019-03-09T17:40:31.376Z,13.40
2019-03-09T17:42:58.182Z,5.23
2019-03-09T17:45:25.118Z,5.13
2019-03-09T17:47:51.893Z,5.33
2019-03-09T17:50:18.679Z,6.00
2019-03-09T17:52:45.478Z,8.23
2019-03-09T17:55:12.272Z,6.33
2019-03-09T17:57:39.048Z,8.80
2019-03-09T18:00:07.463Z,12.00
2019-03-09T18:02:34.302Z,9.00
2019-03-09T18:05:01.433Z,10.53
2019-03-09T18:07:28.286Z,8.40
2019-03-09T18:09:55.089Z,7.53
2019-03-09T18:12:22.484Z,7.40
2019-03-09T18:14:49.397Z,7.67
2019-03-09T18:17:16.200Z,5.97
2019-03-09T18:19:43.009Z,4.97
2019-03-09T18:22:09.814Z,6.97
2019-03-09T18:24:36.652Z,6.90
2019-03-09T18:27:03.489Z,6.77
2019-03-09T18:29:30.408Z,10.57
2019-03-09T18:31:57.497Z,7.43
2019-03-09T18:34:24.319Z,7.80
2019-03-09T18:36:51.200Z,7.97
2019-03-09T18:39:18.087Z,7.73
2019-03-09T18:41:44.926Z,8.63
2019-03-09T18:44:11.778Z,9.23
2019-03-09T18:46:38.693Z,9.73
2019-03-09T18:49:05.545Z,9.13
2019-03-09T18:51:32.440Z,11.90
2019-03-09T18:53:59.261Z,12.17
2019-03-09T18:56:26.082Z,13.20
2019-03-09T18:58:52.888Z,23.67
2019-03-09T19:01:19.675Z,9.50
2019-03-09T19:03:46.468Z,9.70
2019-03-09T19:06:13.313Z,12.97
2019-03-09T19:08:40.211Z,17.70
2019-03-09T19:11:07.078Z,14.90
2019-03-09T19:13:33.959Z,9.07
2019-03-09T19:16:00.832Z,12.10
2019-03-09T19:18:27.759Z,14.00
2019-03-09T19:20:54.649Z,19.67
2019-03-09T19:23:21.469Z,16.43
2019-03-09T19:25:48.260Z,13.87
2019-03-09T19:28:15.079Z,8.80
2019-03-09T19:30:41.902Z,10.10
2019-03-09T19:33:08.716Z,13.97
2019-03-09T19:35:35.548Z,8.70
2019-03-09T19:38:02.363Z,10.13
2019-03-09T19:40:29.152Z,7.17
2019-03-09T19:42:56.004Z,15.40
2019-03-09T19:45:23.001Z,9.43
2019-03-09T19:47:50.033Z,10.00
2019-03-09T19:50:17.032Z,9.40
2019-03-09T19:52:43.967Z,11.93
2019-03-09T19:55:11.426Z,10.10
2019-03-09T19:57:38.211Z,14.03
2019-03-09T20:00:05.473Z,12.20
2019-03-09T20:02:32.446Z,17.27
2019-03-09T20:04:59.283Z,15.37
2019-03-09T20:07:26.068Z,13.13
2019-03-09T20:09:52.965Z,15.60
2019-03-09T20:12:20.846Z,15.20
2019-03-09T20:14:47.788Z,11.97
2019-03-09T20:17:14.603Z,13.50
2019-03-09T20:19:41.418Z,13.10
2019-03-09T20:22:08.274Z,14.10
2019-03-09T20:24:35.347Z,11.73
2019-03-09T20:27:02.178Z,14.57
2019-03-09T20:29:28.989Z,10.33
2019-03-09T20:31:56.302Z,6.73
2019-03-09T20:34:23.135Z,7.90
2019-03-09T20:36:50.012Z,5.80
2019-03-09T20:39:17.304Z,10.30
2019-03-09T20:41:44.218Z,5.10
2019-03-09T20:44:11.119Z,5.90
2019-03-09T20:46:41.822Z,6.47
2019-03-09T20:49:06.826Z,9.87
2019-03-09T20:51:33.680Z,6.77
2019-03-09T20:54:00.464Z,4.37
2019-03-09T20:56:27.601Z,3.37
2019-03-09T20:58:54.545Z,5.17
2019-03-09T21:01:21.444Z,6.10
2019-03-09T21:03:48.293Z,5.97
2019-03-09T21:06:15.101Z,4.07
2019-03-09T21:08:42.019Z,3.10
2019-03-09T21:11:08.874Z,3.57
2019-03-09T21:13:35.647Z,6.17
2019-03-09T21:16:02.468Z,7.03
2019-03-09T21:18:29.445Z,4.07
2019-03-09T21:20:56.321Z,5.93
2019-03-09T21:23:23.090Z,6.50
2019-03-09T21:25:49.920Z,7.77
2019-03-09T21:28:16.728Z,11.90
2019-03-09T21:30:43.576Z,4.27
2019-03-09T21:33:10.380Z,12.07
2019-03-09T21:35:37.165Z,8.67
2019-03-09T21:38:03.968Z,12.97
2019-03-09T21:40:30.904Z,4.97
2019-03-09T21:42:57.723Z,7.53
2019-03-09T21:45:24.555Z,5.97
2019-03-09T21:47:51.497Z,10.03
2019-03-09T21:50:43.574Z,6.90
2019-03-09T21:53:10.809Z,5.07
2019-03-09T21:55:37.692Z,6.37
2019-03-09T21:58:04.497Z,4.63
2019-03-09T22:00:31.438Z,4.60
2019-03-09T22:02:58.238Z,12.30
2019-03-09T22:05:25.146Z,8.70
2019-03-09T22:07:52.102Z,14.00
2019-03-09T22:10:18.992Z,9.00
2019-03-09T22:12:45.817Z,10.03
2019-03-09T22:15:12.711Z,8.33
2019-03-09T22:17:39.979Z,7.77
2019-03-09T22:20:06.979Z,5.13
2019-03-09T22:22:33.840Z,8.07
2019-03-09T22:25:00.736Z,6.40
2019-03-09T22:27:27.621Z,10.63
2019-03-09T22:29:54.485Z,10.73
2019-03-09T22:32:21.373Z,9.00
2019-03-09T22:34:48.239Z,7.93
2019-03-09T22:37:17.473Z,6.07
2019-03-09T22:39:44.348Z,3.10
2019-03-09T22:42:13.562Z,7.63
2019-03-09T22:44:40.517Z,7.10
2019-03-09T22:47:11.586Z,6.07
2019-03-09T22:49:38.354Z,9.50
2019-03-09T22:52:04.911Z,10.60
2019-03-09T22:54:31.708Z,12.87
2019-03-09T22:56:58.475Z,11.70
2019-03-09T22:59:25.332Z,5.40
2019-03-09T23:01:52.159Z,7.27
2019-03-09T23:04:18.964Z,5.00
2019-03-09T23:06:45.809Z,10.93
2019-03-09T23:09:12.637Z,6.00
2019-03-09T23:11:39.402Z,8.93
2019-03-09T23:14:06.264Z,8.90
2019-03-09T23:16:33.076Z,8.97
2019-03-09T23:18:59.925Z,7.03
2019-03-09T23:21:26.729Z,11.63
2019-03-09T23:23:53.604Z,10.93
2019-03-09T23:26:20.409Z,6.33
2019-03-09T23:28:47.906Z,16.67
2019-03-09T23:31:14.813Z,8.53
2019-03-09T23:33:43.983Z,6.93
2019-03-09T23:36:11.252Z,5.70
2019-03-09T23:38:38.117Z,10.27
2019-03-09T23:41:04.908Z,9.67
2019-03-09T23:43:31.721Z,18.33
2019-03-09T23:45:58.543Z,5.57
2019-03-09T23:48:25.716Z,10.40
2019-03-09T23:50:52.521Z,5.53
2019-03-09T23:53:19.407Z,7.30
2019-03-09T23:55:46.257Z,9.10
2019-03-09T23:58:13.089Z,7.80
